createdAt,value
2019-04-20T00:01:18.644Z,11.80
2019-04-20T00:03:46.733Z,11.70
2019-04-20T00:06:17.362Z,11.70
2019-04-20T00:08:57.880Z,11.60
2019-04-20T00:11:26.311Z,11.50
2019-04-20T00:13:59.893Z,11.60
2019-04-20T00:16:23.122Z,11.60
2019-04-20T00:18:56.577Z,11.50
2019-04-20T00:22:00.361Z,11.50
2019-04-20T00:25:00.428Z,11.50
2019-04-20T00:27:44.300Z,11.50
2019-04-20T00:30:20.628Z,11.50
2019-04-20T00:32:41.331Z,11.50
2019-04-20T00:34:58.124Z,11.40
2019-04-20T00:37:28.289Z,11.30
2019-04-20T00:39:59.479Z,11.30
2019-04-20T00:42:38.017Z,11.40
2019-04-20T00:45:09.565Z,11.30
2019-04-20T00:47:42.900Z,11.30
2019-04-20T00:50:21.330Z,11.20
2019-04-20T00:52:51.438Z,11.30
2019-04-20T00:55:08.338Z,11.20
2019-04-20T00:58:09.385Z,11.20
2019-04-20T01:00:54.235Z,11.10
2019-04-20T01:03:14.376Z,11.10
2019-04-20T01:06:11.066Z,11.00
2019-04-20T01:08:31.947Z,11.00
2019-04-20T01:11:02.725Z,11.00
2019-04-20T01:13:42.198Z,10.90
2019-04-20T01:16:14.323Z,10.90
2019-04-20T01:18:36.933Z,10.90
2019-04-20T01:21:14.072Z,10.80
2019-04-20T01:24:02.819Z,10.80
2019-04-20T01:26:29.479Z,10.80
2019-04-20T01:29:12.089Z,10.80
2019-04-20T01:31:38.360Z,10.70
2019-04-20T01:34:15.024Z,10.70
2019-04-20T01:36:52.013Z,10.70
2019-04-20T01:39:18.335Z,10.60
2019-04-20T01:41:39.242Z,10.60
2019-04-20T01:44:09.484Z,10.50
2019-04-20T01:46:46.702Z,10.50
2019-04-20T01:49:16.778Z,10.50
2019-04-20T01:51:53.726Z,10.50
2019-04-20T01:54:48.473Z,10.50
2019-04-20T01:57:26.119Z,10.50
2019-04-20T02:00:06.085Z,10.40
2019-04-20T02:02:47.544Z,10.40
2019-04-20T02:05:21.249Z,10.30
2019-04-20T02:07:49.391Z,10.40
2019-04-20T02:10:20.032Z,10.40
2019-04-20T02:13:09.766Z,10.20
2019-04-20T02:15:47.915Z,10.30
2019-04-20T02:18:28.193Z,10.10
2019-04-20T02:20:59.852Z,10.20
2019-04-20T02:23:29.395Z,10.10
2019-04-20T02:25:46.519Z,10.10
2019-04-20T02:28:36.205Z,10.10
2019-04-20T02:31:23.031Z,10.00
2019-04-20T02:34:15.678Z,9.90
2019-04-20T02:36:58.574Z,9.90
2019-04-20T02:44:36.474Z,9.80
2019-04-20T02:47:11.764Z,9.80
2019-04-20T02:49:36.207Z,9.80
2019-04-20T02:52:06.756Z,9.70
2019-04-20T02:57:12.252Z,9.70
2019-04-20T02:59:59.492Z,9.70
2019-04-20T03:02:01.506Z,9.70
2019-04-20T03:04:25.800Z,9.70
2019-04-20T03:09:36.446Z,9.60
2019-04-20T03:12:10.619Z,9.60
2019-04-20T03:14:34.976Z,9.60
2019-04-20T03:17:15.302Z,9.50
2019-04-20T03:19:38.674Z,9.50
2019-04-20T03:22:18.899Z,9.50
2019-04-20T03:24:51.369Z,9.40
2019-04-20T03:27:19.463Z,9.40
2019-04-20T03:31:00.509Z,9.40
2019-04-20T03:35:25.080Z,9.40
2019-04-20T03:37:55.408Z,9.40
2019-04-20T03:40:19.307Z,9.30
2019-04-20T03:42:54.919Z,9.40
2019-04-20T03:45:27.070Z,9.20
2019-04-20T03:48:09.148Z,9.20
2019-04-20T03:50:46.366Z,9.10
2019-04-20T03:53:23.025Z,9.10
2019-04-20T03:56:35.132Z,9.00
2019-04-20T03:59:45.739Z,9.00
2019-04-20T04:02:29.830Z,9.00
2019-04-20T04:04:59.093Z,9.00
2019-04-20T04:07:24.890Z,9.00
2019-04-20T04:10:08.460Z,9.00
2019-04-20T04:12:58.788Z,8.90
2019-04-20T04:15:29.636Z,8.90
2019-04-20T04:18:07.529Z,8.80
2019-04-20T04:20:37.658Z,8.80
2019-04-20T04:23:43.190Z,8.80
2019-04-20T04:26:10.385Z,8.80
2019-04-20T04:28:41.051Z,8.80
2019-04-20T04:31:16.313Z,8.70
2019-04-20T04:36:14.037Z,8.70
2019-04-20T04:38:53.679Z,8.70
2019-04-20T04:41:36.708Z,8.70
2019-04-20T04:43:54.208Z,8.70
2019-04-20T04:46:07.901Z,8.70
2019-04-20T04:48:42.792Z,8.60
2019-04-20T04:51:18.508Z,8.60
2019-04-20T04:53:51.128Z,8.60
2019-04-20T04:56:16.936Z,8.60
2019-04-20T04:58:44.637Z,8.60
2019-04-20T05:01:21.724Z,8.60
2019-04-20T05:04:14.643Z,8.60
2019-04-20T05:06:33.234Z,8.60
2019-04-20T05:08:59.996Z,8.60
2019-04-20T05:11:25.863Z,8.70
2019-04-20T05:14:02.225Z,8.70
2019-04-20T05:16:45.063Z,8.70
2019-04-20T05:19:19.676Z,8.70
2019-04-20T05:22:07.942Z,8.70
2019-04-20T05:24:53.621Z,8.80
2019-04-20T05:27:45.175Z,8.70
2019-04-20T05:29:57.158Z,8.80
2019-04-20T05:32:37.878Z,8.80
2019-04-20T05:35:21.527Z,8.80
2019-04-20T05:38:09.355Z,8.80
2019-04-20T05:40:23.353Z,8.90
2019-04-20T05:43:03.187Z,8.90
2019-04-20T05:45:25.152Z,8.90
2019-04-20T05:47:53.668Z,9.00
2019-04-20T05:50:33.269Z,9.10
2019-04-20T05:53:09.951Z,9.20
2019-04-20T05:55:47.031Z,9.30
2019-04-20T05:58:26.387Z,9.40
2019-04-20T06:01:00.227Z,9.50
2019-04-20T06:03:26.112Z,9.60
2019-04-20T06:06:06.178Z,9.70
2019-04-20T06:08:41.685Z,9.80
2019-04-20T06:11:03.836Z,10.10
2019-04-20T06:13:32.428Z,10.40
2019-04-20T06:16:12.861Z,10.70
2019-04-20T06:18:49.748Z,11.10
2019-04-20T06:21:35.470Z,11.40
2019-04-20T06:24:02.638Z,11.90
2019-04-20T06:29:07.312Z,12.40
2019-04-20T06:31:39.805Z,12.90
2019-04-20T06:36:54.243Z,13.20
2019-04-20T06:39:30.924Z,13.40
2019-04-20T06:42:15.299Z,13.80
2019-04-20T06:52:32.402Z,13.90
2019-04-20T06:55:36.878Z,14.20
2019-04-20T07:00:15.338Z,15.10
2019-04-20T07:02:48.325Z,15.70
2019-04-20T07:05:24.788Z,15.10
2019-04-20T07:08:27.727Z,14.60
2019-04-20T07:10:43.849Z,14.70
2019-04-20T07:13:07.287Z,15.40
2019-04-20T07:15:46.543Z,16.50
2019-04-20T07:18:23.223Z,16.80
2019-04-20T07:21:04.277Z,17.70
2019-04-20T07:23:32.640Z,17.60
2019-04-20T07:26:13.868Z,18.00
2019-04-20T07:28:41.130Z,18.10
2019-04-20T07:31:11.316Z,18.30
2019-04-20T07:33:39.302Z,18.80
2019-04-20T07:36:15.803Z,19.20
2019-04-20T07:38:51.782Z,19.50
2019-04-20T07:41:23.602Z,19.30
2019-04-20T07:44:29.269Z,19.70
2019-04-20T07:46:52.486Z,19.90
2019-04-20T07:49:15.756Z,20.30
2019-04-20T07:51:36.717Z,20.70
2019-04-20T07:54:38.680Z,20.80
2019-04-20T07:57:05.081Z,21.20
2019-04-20T07:59:27.645Z,21.20
2019-04-20T08:02:38.123Z,20.20
2019-04-20T08:05:36.328Z,21.10
2019-04-20T08:08:14.664Z,21.70
2019-04-20T08:10:42.864Z,21.40
2019-04-20T08:13:27.541Z,21.80
2019-04-20T08:15:57.037Z,22.40
2019-04-20T08:18:35.015Z,22.70
2019-04-20T08:21:21.014Z,23.00
2019-04-20T08:23:33.564Z,22.90
2019-04-20T08:25:58.967Z,22.30
2019-04-20T08:28:35.879Z,22.80
2019-04-20T08:31:33.578Z,23.20
2019-04-20T08:34:18.644Z,23.20
2019-04-20T08:36:51.416Z,23.50
2019-04-20T08:39:46.942Z,23.90
2019-04-20T08:42:06.345Z,24.00
2019-04-20T08:47:27.434Z,24.10
2019-04-20T08:53:20.274Z,23.60
2019-04-20T08:55:37.689Z,23.80
2019-04-20T08:57:54.348Z,23.90
2019-04-20T09:00:29.448Z,24.10
2019-04-20T09:03:07.896Z,24.20
2019-04-20T09:05:40.035Z,24.50
2019-04-20T09:08:09.236Z,25.30
2019-04-20T09:10:49.302Z,24.00
2019-04-20T09:13:15.696Z,21.40
2019-04-20T09:15:36.221Z,21.00
2019-04-20T09:18:20.604Z,22.60
2019-04-20T09:20:50.702Z,23.20
2019-04-20T09:23:26.522Z,24.10
2019-04-20T09:26:12.932Z,24.80
2019-04-20T09:28:38.402Z,24.90
2019-04-20T09:31:21.706Z,24.80
2019-04-20T09:34:04.651Z,24.40
2019-04-20T09:36:46.226Z,25.60
2019-04-20T09:39:29.552Z,26.30
2019-04-20T09:42:20.458Z,25.50
2019-04-20T09:44:55.551Z,25.60
2019-04-20T09:47:46.503Z,25.60
2019-04-20T09:50:27.772Z,25.90
2019-04-20T09:53:02.449Z,25.80
2019-04-20T09:55:28.491Z,25.70
2019-04-20T09:58:02.727Z,26.20
2019-04-20T10:00:41.177Z,23.80
2019-04-20T10:02:53.087Z,24.90
2019-04-20T10:05:23.318Z,26.10
2019-04-20T10:07:58.629Z,26.20
2019-04-20T10:10:33.384Z,26.70
2019-04-20T10:13:19.560Z,25.30
2019-04-20T10:15:49.977Z,24.30
2019-04-20T10:18:19.845Z,25.10
2019-04-20T10:20:49.828Z,26.20
2019-04-20T10:23:20.738Z,25.60
2019-04-20T10:25:54.254Z,25.90
2019-04-20T10:28:25.523Z,26.50
2019-04-20T10:30:56.698Z,27.00
2019-04-20T10:33:27.767Z,26.00
2019-04-20T10:35:59.320Z,26.00
2019-04-20T10:38:33.364Z,27.40
2019-04-20T10:41:11.453Z,27.30
2019-04-20T10:43:35.067Z,27.60
2019-04-20T10:46:06.967Z,27.80
2019-04-20T10:48:41.529Z,27.20
2019-04-20T10:51:08.482Z,27.70
2019-04-20T10:53:38.488Z,26.20
2019-04-20T10:56:09.499Z,27.60
2019-04-20T10:58:40.068Z,26.90
2019-04-20T11:01:11.436Z,25.90
2019-04-20T11:04:00.833Z,26.40
2019-04-20T11:06:30.755Z,27.20
2019-04-20T11:09:00.520Z,27.60
2019-04-20T11:11:32.051Z,26.30
2019-04-20T11:14:08.332Z,26.00
2019-04-20T11:16:34.114Z,26.70
2019-04-20T11:19:07.423Z,27.10
2019-04-20T11:21:38.593Z,27.80
2019-04-20T11:24:34.432Z,27.80
2019-04-20T11:27:04.614Z,28.00
2019-04-20T11:29:34.477Z,27.70
2019-04-20T11:32:14.049Z,27.90
2019-04-20T11:34:44.204Z,28.50
2019-04-20T11:37:15.259Z,27.30
2019-04-20T11:39:50.710Z,26.80
2019-04-20T11:42:21.738Z,27.50
2019-04-20T11:45:02.765Z,27.50
2019-04-20T11:47:33.682Z,27.90
2019-04-20T11:50:03.863Z,27.70
2019-04-20T11:52:38.853Z,27.60
2019-04-20T11:55:06.355Z,27.20
2019-04-20T11:57:37.555Z,27.50
2019-04-20T12:00:08.836Z,27.70
2019-04-20T12:03:16.335Z,28.20
2019-04-20T12:05:44.435Z,28.30
2019-04-20T12:08:32.161Z,28.40
2019-04-20T12:11:18.193Z,27.90
2019-04-20T12:13:34.398Z,28.60
2019-04-20T12:16:05.666Z,28.20
2019-04-20T12:18:37.880Z,26.70
2019-04-20T12:21:16.752Z,26.80
2019-04-20T12:23:50.053Z,26.60
2019-04-20T12:26:20.593Z,27.80
2019-04-20T12:28:51.613Z,28.40
2019-04-20T12:31:27.192Z,28.20
2019-04-20T12:33:54.761Z,28.60
2019-04-20T12:36:25.967Z,28.40
2019-04-20T12:38:57.182Z,28.00
2019-04-20T12:41:37.577Z,28.30
2019-04-20T12:43:59.528Z,28.20
2019-04-20T12:46:29.725Z,28.30
2019-04-20T12:48:59.876Z,28.40
2019-04-20T12:51:33.830Z,28.80
2019-04-20T12:54:06.732Z,29.30
2019-04-20T12:56:36.657Z,28.80
2019-04-20T12:59:07.465Z,28.80
2019-04-20T13:01:37.451Z,29.00
2019-04-20T13:04:09.190Z,26.10
2019-04-20T13:06:39.287Z,27.00
2019-04-20T13:09:18.745Z,27.20
2019-04-20T13:12:05.276Z,26.60
2019-04-20T13:15:00.382Z,27.20
2019-04-20T13:17:30.476Z,27.80
2019-04-20T13:20:00.430Z,28.30
2019-04-20T13:22:37.037Z,27.80
2019-04-20T13:25:07.308Z,28.30
2019-04-20T13:27:37.250Z,28.10
2019-04-20T13:30:09.195Z,27.90
2019-04-20T13:32:39.151Z,28.10
2019-04-20T13:35:10.035Z,28.30
2019-04-20T13:37:41.762Z,27.20
2019-04-20T13:40:11.956Z,26.50
2019-04-20T13:42:41.742Z,27.30
2019-04-20T13:45:12.944Z,27.70
2019-04-20T13:47:43.214Z,28.00
2019-04-20T13:50:14.482Z,27.80
2019-04-20T13:52:44.846Z,27.80
2019-04-20T13:55:15.323Z,26.20
2019-04-20T13:58:00.018Z,26.70
2019-04-20T14:01:00.997Z,26.60
2019-04-20T14:04:03.532Z,26.70
2019-04-20T14:06:35.359Z,26.30
2019-04-20T14:09:07.542Z,26.10
2019-04-20T14:11:39.032Z,26.00
2019-04-20T14:14:09.331Z,25.80
2019-04-20T14:16:39.479Z,26.30
2019-04-20T14:19:09.438Z,26.90
2019-04-20T14:21:39.344Z,26.90
2019-04-20T14:24:09.330Z,27.30
2019-04-20T14:26:41.202Z,27.60
2019-04-20T14:29:12.656Z,26.80
2019-04-20T14:31:43.816Z,27.10
2019-04-20T14:34:14.920Z,26.80
2019-04-20T14:36:44.917Z,26.80
2019-04-20T14:39:16.109Z,27.30
2019-04-20T14:41:46.536Z,27.60
2019-04-20T14:44:16.939Z,27.60
2019-04-20T14:46:47.566Z,27.10
2019-04-20T14:49:18.631Z,27.20
2019-04-20T14:51:49.887Z,27.80
2019-04-20T14:54:23.488Z,27.90
2019-04-20T14:56:53.725Z,27.40
2019-04-20T14:59:33.744Z,26.90
2019-04-20T15:02:10.392Z,27.30
2019-04-20T15:04:41.238Z,26.60
2019-04-20T15:07:11.273Z,27.00
2019-04-20T15:09:42.543Z,27.20
2019-04-20T15:12:13.104Z,27.00
2019-04-20T15:14:44.781Z,27.20
2019-04-20T15:17:33.813Z,27.20
2019-04-20T15:20:15.550Z,27.40
2019-04-20T15:22:50.024Z,27.10
2019-04-20T15:25:21.044Z,27.00
2019-04-20T15:27:52.347Z,27.10
2019-04-20T15:30:22.437Z,26.30
2019-04-20T15:32:52.424Z,26.20
2019-04-20T15:35:23.306Z,26.20
2019-04-20T15:37:55.305Z,26.40
2019-04-20T15:40:25.206Z,26.10
2019-04-20T15:43:05.949Z,26.00
2019-04-20T15:45:27.328Z,26.40
2019-04-20T15:47:58.140Z,26.00
2019-04-20T15:50:29.846Z,25.80
2019-04-20T15:53:00.779Z,25.30
2019-04-20T15:55:37.415Z,25.30
2019-04-20T15:58:06.079Z,25.40
2019-04-20T16:00:36.301Z,25.20
2019-04-20T16:03:31.244Z,24.90
2019-04-20T16:06:07.318Z,24.40
2019-04-20T16:08:57.575Z,24.30
2019-04-20T16:11:28.673Z,24.50
2019-04-20T16:14:00.113Z,24.10
2019-04-20T16:16:31.946Z,24.30
2019-04-20T16:19:03.964Z,24.40
2019-04-20T16:21:36.959Z,24.10
2019-04-20T16:24:12.937Z,23.90
2019-04-20T16:27:09.675Z,23.60
2019-04-20T16:29:40.114Z,23.40
2019-04-20T16:32:09.855Z,23.40
2019-04-20T16:34:40.377Z,23.10
2019-04-20T16:37:10.698Z,23.00
2019-04-20T16:39:40.805Z,22.70
2019-04-20T16:42:12.474Z,22.50
2019-04-20T16:44:43.086Z,22.40
2019-04-20T16:47:14.233Z,22.40
2019-04-20T16:49:48.715Z,22.20
2019-04-20T16:52:19.044Z,22.20
2019-04-20T16:54:50.027Z,21.90
2019-04-20T16:57:20.039Z,21.90
2019-04-20T16:59:52.990Z,22.00
2019-04-20T17:02:40.694Z,22.00
2019-04-20T17:05:11.324Z,21.80
2019-04-20T17:07:44.758Z,21.60
2019-04-20T17:10:16.374Z,21.60
2019-04-20T17:12:46.446Z,21.40
2019-04-20T17:15:16.552Z,21.30
2019-04-20T17:17:49.460Z,21.20
2019-04-20T17:20:19.699Z,21.20
2019-04-20T17:23:10.674Z,21.00
2019-04-20T17:25:41.819Z,20.90
2019-04-20T17:28:49.192Z,20.80
2019-04-20T17:31:27.332Z,20.60
2019-04-20T17:34:27.195Z,20.70
2019-04-20T17:36:42.211Z,20.50
2019-04-20T17:39:15.751Z,20.40
2019-04-20T17:42:00.144Z,20.30
2019-04-20T17:44:34.127Z,20.20
2019-04-20T17:47:01.185Z,20.10
2019-04-20T17:49:34.115Z,20.10
2019-04-20T17:52:17.709Z,20.00
2019-04-20T17:54:35.580Z,20.00
2019-04-20T17:57:08.983Z,19.90
2019-04-20T17:59:40.259Z,19.80
2019-04-20T18:02:44.337Z,19.70
2019-04-20T18:05:53.073Z,19.50
2019-04-20T18:08:27.291Z,19.40
2019-04-20T18:10:50.653Z,19.30
2019-04-20T18:13:17.773Z,19.20
2019-04-20T18:15:58.998Z,19.20
2019-04-20T18:18:59.527Z,19.10
2019-04-20T18:21:26.667Z,19.00
2019-04-20T18:24:00.429Z,18.90
2019-04-20T18:26:48.138Z,18.80
2019-04-20T18:29:20.230Z,18.80
2019-04-20T18:31:57.663Z,18.80
2019-04-20T18:34:45.892Z,18.70
2019-04-20T18:37:17.279Z,18.60
2019-04-20T18:39:53.967Z,18.40
2019-04-20T18:42:24.919Z,18.30
2019-04-20T18:45:09.126Z,18.20
2019-04-20T18:47:55.086Z,18.00
2019-04-20T18:50:20.628Z,17.90
2019-04-20T18:52:42.202Z,17.80
2019-04-20T18:55:22.273Z,17.80
2019-04-20T18:57:46.892Z,17.70
2019-04-20T19:00:26.977Z,17.70
2019-04-20T19:02:54.426Z,17.50
2019-04-20T19:05:22.235Z,17.50
2019-04-20T19:07:59.286Z,17.40
2019-04-20T19:10:29.145Z,17.30
2019-04-20T19:13:28.695Z,17.30
2019-04-20T19:16:16.512Z,17.20
2019-04-20T19:19:00.555Z,17.10
2019-04-20T19:21:17.528Z,17.10
2019-04-20T19:23:55.949Z,17.00
2019-04-20T19:26:21.422Z,16.90
2019-04-20T19:28:54.386Z,16.80
2019-04-20T19:31:41.360Z,16.70
2019-04-20T19:34:13.162Z,16.70
2019-04-20T19:36:34.166Z,16.60
2019-04-20T19:39:16.246Z,16.60
2019-04-20T19:41:38.998Z,16.50
2019-04-20T19:44:13.106Z,16.40
2019-04-20T19:46:49.209Z,16.30
2019-04-20T19:49:18.353Z,16.20
2019-04-20T19:52:12.176Z,16.10
2019-04-20T19:54:33.111Z,16.10
2019-04-20T19:56:58.216Z,16.00
2019-04-20T19:59:26.021Z,15.90
2019-04-20T20:01:47.801Z,15.90
2019-04-20T20:04:17.690Z,15.90
2019-04-20T20:06:53.233Z,15.90
2019-04-20T20:09:20.049Z,15.80
2019-04-20T20:11:51.406Z,15.70
2019-04-20T20:14:31.961Z,15.50
2019-04-20T20:17:13.007Z,15.40
2019-04-20T20:19:38.529Z,15.40
2019-04-20T20:22:09.039Z,15.30
2019-04-20T20:24:27.507Z,15.20
2019-04-20T20:27:02.558Z,15.10
2019-04-20T20:29:36.630Z,15.20
2019-04-20T20:32:13.262Z,15.10
2019-04-20T20:34:38.408Z,15.10
2019-04-20T20:37:08.998Z,15.10
2019-04-20T20:39:38.650Z,15.10
2019-04-20T20:42:22.014Z,15.00
2019-04-20T20:44:45.713Z,15.00
2019-04-20T20:47:33.871Z,14.80
2019-04-20T20:50:09.816Z,14.80
2019-04-20T20:52:32.289Z,14.60
2019-04-20T20:54:53.982Z,14.50
2019-04-20T20:57:20.672Z,14.40
2019-04-20T20:59:55.651Z,14.40
2019-04-20T21:02:47.353Z,14.30
2019-04-20T21:05:11.663Z,14.30
2019-04-20T21:07:42.748Z,14.20
2019-04-20T21:10:15.282Z,14.20
2019-04-20T21:12:52.034Z,14.20
2019-04-20T21:15:21.005Z,14.00
2019-04-20T21:18:31.325Z,14.00
2019-04-20T21:20:55.139Z,14.00
2019-04-20T21:23:22.482Z,13.90
2019-04-20T21:25:59.093Z,13.90
2019-04-20T21:28:31.045Z,13.70
2019-04-20T21:31:10.502Z,13.70
2019-04-20T21:33:51.479Z,13.80
2019-04-20T21:36:27.228Z,13.60
2019-04-20T21:38:53.904Z,13.50
2019-04-20T21:41:27.493Z,13.40
2019-04-20T21:43:58.094Z,13.40
2019-04-20T21:46:29.843Z,13.30
2019-04-20T21:49:12.788Z,13.20
2019-04-20T21:51:42.515Z,13.30
2019-04-20T21:54:27.863Z,13.20
2019-04-20T21:57:03.409Z,13.20
2019-04-20T21:59:36.257Z,13.00
2019-04-20T22:02:09.840Z,13.00
2019-04-20T22:04:33.474Z,12.90
2019-04-20T22:07:04.654Z,13.00
2019-04-20T22:09:55.363Z,12.70
2019-04-20T22:12:28.468Z,12.90
2019-04-20T22:15:04.173Z,12.70
2019-04-20T22:17:33.107Z,12.80
2019-04-20T22:20:13.227Z,12.70
2019-04-20T22:22:49.425Z,12.70
2019-04-20T22:25:25.743Z,12.60
2019-04-20T22:27:36.678Z,12.40
2019-04-20T22:30:08.239Z,12.40
2019-04-20T22:32:44.176Z,12.40
2019-04-20T22:35:14.142Z,12.30
2019-04-20T22:37:52.106Z,12.20
2019-04-20T22:40:24.979Z,12.10
2019-04-20T22:42:54.434Z,12.00
2019-04-20T22:45:23.339Z,11.90
2019-04-20T22:48:02.265Z,11.90
2019-04-20T22:50:40.118Z,11.90
2019-04-20T22:53:14.987Z,11.90
2019-04-20T22:55:47.315Z,11.90
2019-04-20T22:58:10.383Z,11.90
2019-04-20T23:00:39.256Z,11.80
2019-04-20T23:03:02.848Z,11.70
2019-04-20T23:05:33.084Z,11.30
2019-04-20T23:08:22.451Z,11.20
2019-04-20T23:10:53.529Z,11.30
2019-04-20T23:13:29.418Z,11.40
2019-04-20T23:16:00.127Z,11.50
2019-04-20T23:18:28.433Z,11.40
2019-04-20T23:21:01.297Z,11.40
2019-04-20T23:23:30.950Z,11.30
2019-04-20T23:26:01.203Z,11.20
2019-04-20T23:28:31.308Z,11.20
2019-04-20T23:31:07.343Z,11.20
2019-04-20T23:33:33.759Z,11.00
2019-04-20T23:36:05.072Z,10.90
2019-04-20T23:38:35.187Z,11.00
2019-04-20T23:41:05.982Z,10.90
2019-04-20T23:44:16.081Z,10.80
2019-04-20T23:47:04.550Z,10.70
2019-04-20T23:49:42.845Z,10.60
2019-04-20T23:52:26.956Z,10.50
2019-04-20T23:54:35.346Z,10.50
2019-04-20T23:57:05.811Z,10.50
2019-04-20T23:59:41.160Z,10.60
